Data for 03/17/2009

Time Sea-Level Adjusted Pressure Absolute Pressure Temperature Relative Humidity Dew Point   
(mb) (inHg) (mb) (inHg) (C) (F) (%) (C) (F)
00:05 1017 30.03 846 24.98 -1.4 29.4 92 -2.6 27.3
00:10 1017 30.03 846 24.98 -1.5 29.2 93 -2.6 27.3
00:15 1017 30.03 846 24.98 -1.6 29.2 92 -2.7 27.2
00:20 1017 30.03 846 24.98 -1.5 29.2 92 -2.7 27.1
00:25 1017 30.03 846 24.98 -1.5 29.4 90 -2.9 26.9
00:30 1017 30.03 846 24.98 -1.4 29.5 91 -2.6 27.3
00:35 1017 30.03 846 24.98 -1.4 29.4 91 -2.7 27.2
00:40 1017 30.03 846 24.98 -1.4 29.5 90 -2.8 26.9
00:45 1017 30.03 846 24.98 -1.2 29.9 89 -2.8 27
00:50 1017 30.03 846 24.98 -1 30.2 88 -2.7 27.1
00:55 1017 30.03 846 24.98 -1.1 30.1 89 -2.7 27.2
01:00 1017 30.03 846 24.98 -1.1 30.1 89 -2.6 27.4
01:05 1017 30.03 846 24.98 -0.9 30.4 89 -2.5 27.6
01:10 1017 30.03 846 24.98 -0.8 30.5 89 -2.5 27.6
01:15 1017 30.03 846 24.98 -0.6 30.8 89 -2.3 27.9
01:20 1017 30.03 846 24.98 -0.7 30.8 89 -2.3 27.9
01:25 1017 30.03 846 24.98 -0.7 30.8 90 -2.2 28.1
01:30 1017 30.03 846 24.98 -0.7 30.7 91 -2.1 28.3
01:35 1017 30.03 846 24.98 -0.7 30.8 91 -2 28.4
01:40 1017 30.03 846 24.98 -0.6 30.8 91 -1.9 28.6
01:45 1017 30.03 846 24.98 -0.7 30.8 92 -1.8 28.7
01:50 1017 30.03 846 24.98 -0.6 31 91 -1.9 28.6
01:55 1017 30.03 846 24.98 -0.6 30.9 90 -2.1 28.2
02:00 1016 30 846 24.98 -0.7 30.7 90 -2.1 28.1
02:05 1017 30.03 846 24.98 -0.7 30.7 89 -2.4 27.7
02:10 1017 30.03 846 24.98 -0.5 31.1 86 -2.5 27.5
02:15 1017 30.03 846 24.98 -0.2 31.6 83 -2.8 27
02:20 1017 30.03 846 24.98 -0 32 82 -2.8 27
02:25 1017 30.03 846 24.98 -0.1 31.8 82 -2.8 26.9
02:30 1017 30.03 846 24.98 -0 32 84 -2.4 27.6
02:35 1017 30.03 846 24.98 -0.3 31.5 86 -2.3 27.9
02:40 1017 30.03 846 24.98 -0.2 31.7 84 -2.6 27.4
02:45 1017 30.03 846 24.98 0.1 32.1 84 -2.3 27.8
02:50 1017 30.03 846 24.98 0.1 32.2 83 -2.4 27.7
02:55 1017 30.03 846 24.98 0.2 32.4 84 -2.2 28
03:00 1017 30.03 846 24.98 0.3 32.5 84 -2.1 28.2
03:05 1017 30.03 846 24.98 0.1 32.2 86 -2 28.4
03:10 1017 30.03 846 24.98 -0.1 31.8 84 -2.5 27.5
03:15 1017 30.03 846 24.98 -0.2 31.6 87 -2.1 28.2
03:20 1017 30.03 846 24.98 -0.5 31 90 -1.9 28.6
03:25 1017 30.03 846 24.98 -0.7 30.7 92 -1.8 28.7
03:30 1017 30.03 846 24.98 -0.9 30.4 94 -1.8 28.8
03:35 1017 30.03 846 24.98 -1 30.2 94 -1.8 28.7
03:40 1017 30.03 846 24.98 -1 30.2 94 -1.9 28.6
03:45 1017 30.03 846 24.98 -1 30.2 93 -1.9 28.5
03:50 1017 30.03 846 24.98 -0.9 30.3 93 -1.9 28.6
03:55 1017 30.03 846 24.98 -0.8 30.5 93 -1.9 28.6
04:00 1017 30.03 846 24.98 -0.8 30.6 92 -1.9 28.6
04:05 1017 30.03 846 24.98 -0.7 30.7 92 -1.9 28.6
04:10 1017 30.03 846 24.98 -0.6 30.9 91 -1.9 28.5
04:15 1017 30.03 846 24.98 -0.5 31 91 -1.8 28.7
04:20 1017 30.03 846 24.98 -0.6 31 91 -1.9 28.6
04:25 1017 30.03 846 24.98 -0.5 31.1 91 -1.8 28.7
04:30 1017 30.03 846 24.98 -0.8 30.5 93 -1.8 28.8
04:35 1017 30.03 846 24.98 -1 30.2 93 -2 28.4
04:40 1017 30.03 846 24.98 -0.9 30.5 92 -2.1 28.3
04:45 1017 30.03 846 24.98 -0.8 30.6 91 -2.1 28.2
04:50 1017 30.03 846 24.98 -0.8 30.6 91 -2.1 28.2
04:55 1017 30.03 846 24.98 -0.9 30.4 91 -2.2 28
05:00 1017 30.03 846 24.98 -0.9 30.4 91 -2.2 28.1
05:05 1017 30.03 846 24.98 -1 30.2 91 -2.3 27.9
05:10 1017 30.03 846 24.98 -1.1 30.1 92 -2.2 28
05:15 1017 30.03 846 24.98 -1.2 29.9 92 -2.3 27.8
05:20 1017 30.03 846 24.98 -1.1 30 91 -2.4 27.8
05:25 1017 30.03 846 24.98 -1.1 30 92 -2.2 28
05:30 1017 30.03 847 25.01 -1.2 29.9 92 -2.3 27.9
05:35 1018 30.06 847 25.01 -1.2 29.9 91 -2.5 27.5
05:40 1018 30.06 847 25.01 -1.1 30 90 -2.5 27.5
05:45 1018 30.06 847 25.01 -1.1 30.1 89 -2.7 27.2
05:50 1018 30.06 847 25.01 -1 30.2 90 -2.4 27.6
05:55 1018 30.06 847 25.01 -0.9 30.4 90 -2.3 27.9
06:00 1018 30.06 847 25.01 -0.8 30.5 90 -2.3 27.9
06:05 1018 30.06 847 25.01 -0.8 30.5 90 -2.3 27.9
06:10 1018 30.06 847 25.01 -1 30.2 90 -2.4 27.8
06:15 1018 30.06 847 25.01 -1.2 29.9 91 -2.5 27.5
06:20 1018 30.06 847 25.01 -1.1 30.1 89 -2.7 27.2
06:25 1018 30.06 847 25.01 -0.9 30.3 90 -2.4 27.7
06:30 1018 30.06 847 25.01 -0.9 30.3 88 -2.6 27.2
06:35 1018 30.06 847 25.01 -0.7 30.8 87 -2.6 27.3
06:40 1018 30.06 847 25.01 -0.6 30.9 86 -2.6 27.3
06:45 1018 30.06 847 25.01 -0.6 31 85 -2.7 27.1
06:50 1018 30.06 847 25.01 -0.3 31.4 84 -2.7 27.1
06:55 1018 30.06 847 25.01 -0.1 31.8 84 -2.5 27.4
07:00 1018 30.06 847 25.01 0 32 83 -2.5 27.5
07:05 1018 30.06 847 25.01 0.1 32.2 83 -2.5 27.6
07:10 1018 30.06 848 25.04 0.1 32.3 83 -2.4 27.7
07:15 1018 30.06 848 25.04 0.1 32.3 84 -2.3 27.9
07:20 1018 30.06 848 25.04 0.1 32.2 84 -2.2 28
07:25 1019 30.09 848 25.04 0.2 32.3 84 -2.2 28.1
07:30 1019 30.09 848 25.04 0.2 32.3 84 -2.2 28.1
07:35 1019 30.09 848 25.04 0 32 86 -2.1 28.2
07:40 1019 30.09 848 25.04 -0.1 31.8 87 -2 28.4
07:45 1019 30.09 848 25.04 -0.3 31.5 89 -2 28.5
07:50 1019 30.09 848 25.04 -0.5 31.2 90 -1.9 28.5
07:55 1019 30.09 848 25.04 -0.6 30.9 90 -2 28.4
08:00 1019 30.09 848 25.04 -0.7 30.8 91 -2 28.5
08:05 1019 30.09 848 25.04 -0.7 30.8 91 -2 28.4
08:10 1019 30.09 848 25.04 -0.8 30.6 91 -2 28.4
08:15 1019 30.09 848 25.04 -0.8 30.6 91 -2 28.4
08:20 1019 30.09 848 25.04 -0.7 30.7 91 -2 28.4
08:25 1019 30.09 848 25.04 -0.6 30.9 90 -2 28.4
08:30 1019 30.09 848 25.04 -0.5 31.1 89 -2.1 28.3
08:35 1019 30.09 849 25.07 -0.5 31.2 89 -2 28.4
08:40 1019 30.09 849 25.07 -0.4 31.3 88 -2.1 28.3
08:45 1019 30.09 849 25.07 -0.3 31.5 89 -1.9 28.6
08:50 1020 30.12 849 25.07 -0.4 31.3 90 -1.8 28.7
08:55 1020 30.12 849 25.07 -0.7 30.8 92 -1.8 28.7
09:00 1019 30.09 849 25.07 -0.7 30.8 91 -1.9 28.6
09:05 1020 30.12 849 25.07 -0.5 31.1 90 -2 28.5
09:10 1020 30.12 849 25.07 -0.2 31.6 88 -1.9 28.6
09:15 1020 30.12 849 25.07 -0.1 31.8 88 -1.9 28.5
09:20 1020 30.12 849 25.07 -0.2 31.7 86 -2.2 28.1
09:25 1020 30.12 849 25.07 0.1 32.1 85 -2.1 28.2
09:30 1020 30.12 849 25.07 0.2 32.3 85 -2 28.4
09:35 1020 30.12 849 25.07 0.5 32.9 84 -1.9 28.6
09:40 1020 30.12 849 25.07 0.6 33.1 84 -1.8 28.8
09:45 1020 30.12 849 25.07 0.5 33 82 -2.2 28
09:50 1020 30.12 849 25.07 0.5 33 81 -2.3 27.9
09:55 1020 30.12 849 25.07 0.4 32.7 82 -2.3 27.9
10:00 1020 30.12 849 25.07 0.3 32.6 83 -2.3 27.9
10:05 1020 30.12 849 25.07 0.5 32.9 83 -2 28.3
10:10 1020 30.12 849 25.07 0.6 33.1 80 -2.4 27.7
10:15 1020 30.12 849 25.07 0.6 33.1 79 -2.5 27.4
10:20 1020 30.12 850 25.1 0.6 33.1 80 -2.5 27.5
10:25 1020 30.12 849 25.07 0.9 33.5 79 -2.4 27.6
10:30 1020 30.12 850 25.1 0.6 33 82 -2.2 28.1
10:35 1020 30.12 850 25.1 0.6 33.2 82 -2.1 28.2
10:40 1021 30.15 850 25.1 1.1 34 81 -1.8 28.7
10:45 1021 30.15 850 25.1 0.9 33.7 78 -2.4 27.7
10:50 1021 30.15 850 25.1 2 35.6 73 -2.4 27.7
10:55 1021 30.15 850 25.1 2.4 36.3 65 -3.5 25.7
11:00 1021 30.15 850 25.1 2.4 36.3 62 -4.1 24.7
11:05 1021 30.15 850 25.1 2.5 36.6 62 -3.9 25
11:10 1021 30.15 850 25.1 2.5 36.5 60 -4.6 23.8
11:15 1021 30.15 850 25.1 2.6 36.7 63 -3.7 25.3
11:20 1021 30.15 850 25.1 2.6 36.7 60 -4.4 24.1
11:25 1021 30.15 850 25.1 2.7 36.8 62 -4 24.9
11:30 1021 30.15 850 25.1 2.7 36.9 60 -4.2 24.4
11:35 1021 30.15 850 25.1 3.8 38.9 57 -3.9 25
11:40 1021 30.15 850 25.1 3.9 39.1 57 -3.9 25
11:45 1021 30.15 850 25.1 4.2 39.6 54 -4.2 24.5
11:50 1021 30.15 850 25.1 3.2 37.8 58 -4.3 24.3
11:55 1021 30.15 850 25.1 2.7 36.8 60 -4.3 24.2
12:00 1021 30.15 850 25.1 3.9 39.1 51 -5.2 22.6
12:05 1021 30.15 850 25.1 4.3 39.7 52 -4.7 23.5
12:10 1021 30.15 850 25.1 4.2 39.5 53 -4.5 23.8
12:15 1021 30.15 850 25.1 4.6 40.3 51 -4.7 23.5
12:20 1021 30.15 850 25.1 5.7 42.2 47 -4.6 23.6
12:25 1021 30.15 850 25.1 5.4 41.8 51 -3.9 24.9
12:30 1021 30.15 850 25.1 5.3 41.6 47 -5.1 22.8
12:35 1021 30.15 850 25.1 5.3 41.6 46 -5.4 22.2
12:40 1021 30.15 850 25.1 5.9 42.6 48 -4.4 24.1
12:45 1021 30.15 850 25.1 5.5 42 47 -4.8 23.3
12:50 1021 30.15 850 25.1 5.5 41.9 46 -5.2 22.6
12:55 1021 30.15 850 25.1 5.6 42 46 -5.1 22.9
13:00 1021 30.15 850 25.1 5.6 42.1 45 -5.4 22.3
13:05 1021 30.15 850 25.1 5.4 41.7 46 -5.4 22.3
13:10 1021 30.15 850 25.1 5.1 41.3 47 -5.2 22.6
13:15 1021 30.15 850 25.1 5.4 41.7 47 -4.9 23.1
13:20 1021 30.15 850 25.1 5.7 42.3 49 -4.2 24.5
13:25 1021 30.15 850 25.1 5.6 42 49 -4.4 24
13:30 1021 30.15 850 25.1 5.7 42.3 49 -4.2 24.4
13:35 1021 30.15 850 25.1 6.3 43.4 45 -4.6 23.7
13:40 1021 30.15 850 25.1 5.8 42.5 47 -4.6 23.7
13:45 1021 30.15 850 25.1 6 42.8 45 -5 23.1
13:50 1021 30.15 850 25.1 6.3 43.3 47 -4.2 24.4
13:55 1021 30.15 850 25.1 6.3 43.4 46 -4.6 23.8
14:00 1021 30.15 850 25.1 5.2 41.4 50 -4.3 24.3
14:05 1021 30.15 850 25.1 5 41 50 -4.6 23.8
14:10 1021 30.15 850 25.1 5.2 41.4 47 -5.1 22.8
14:15 1021 30.15 850 25.1 5.1 41.2 49 -4.8 23.3
14:20 1021 30.15 850 25.1 4.4 40 52 -4.5 23.8
14:25 1021 30.15 850 25.1 4.5 40 50 -4.9 23.1
14:30 1021 30.15 850 25.1 4.9 40.9 49 -4.9 23.1
14:35 1020 30.12 850 25.1 4.9 40.9 50 -4.8 23.4
14:40 1020 30.12 849 25.07 5.1 41.1 47 -5.2 22.6
14:45 1020 30.12 849 25.07 4.7 40.5 52 -4.3 24.3
14:50 1020 30.12 849 25.07 4.2 39.5 50 -5.2 22.6
14:55 1020 30.12 849 25.07 4 39.2 52 -5.1 22.9
15:00 1020 30.12 849 25.07 4.9 40.8 49 -4.8 23.3
15:05 1020 30.12 849 25.07 4.3 39.7 52 -4.8 23.4
15:10 1020 30.12 849 25.07 3.9 39.1 50 -5.5 22.1
15:15 1020 30.12 849 25.07 4.2 39.6 52 -4.9 23.2
15:20 1020 30.12 849 25.07 4.2 39.6 51 -5 23
15:25 1020 30.12 849 25.07 3.7 38.7 54 -4.7 23.5
15:30 1020 30.12 849 25.07 3.8 38.9 53 -5 23
15:35 1020 30.12 849 25.07 3.8 38.8 52 -5.1 22.8
15:40 1020 30.12 849 25.07 3.8 38.9 52 -5.1 22.8
15:45 1020 30.12 849 25.07 3.8 38.8 52 -5.2 22.6
15:50 1020 30.12 849 25.07 4 39.1 51 -5.3 22.4
15:55 1020 30.12 849 25.07 4 39.2 51 -5.3 22.5
16:00 1020 30.12 849 25.07 4.1 39.3 51 -5.2 22.6
16:05 1020 30.12 849 25.07 3.5 38.3 51 -5.6 21.9
16:10 1020 30.12 849 25.07 3.7 38.7 52 -5.1 22.8
16:15 1020 30.12 849 25.07 4.3 39.7 48 -5.9 21.4
16:20 1020 30.12 849 25.07 4.3 39.7 51 -5 23.1
16:25 1020 30.12 849 25.07 3.9 39.1 51 -5.3 22.4
16:30 1020 30.12 849 25.07 4.8 40.6 49 -4.9 23.1
16:35 1020 30.12 849 25.07 4.7 40.4 49 -5.2 22.6
16:40 1020 30.12 849 25.07 5.6 42 47 -4.9 23.2
16:45 1020 30.12 849 25.07 6.3 43.3 43 -5.3 22.5
16:50 1020 30.12 849 25.07 6.4 43.4 45 -4.6 23.8
16:55 1020 30.12 849 25.07 6.3 43.3 44 -5.2 22.7
17:00 1020 30.12 849 25.07 6.3 43.4 42 -5.7 21.7
17:05 1020 30.12 849 25.07 6.3 43.4 42 -5.8 21.6
17:10 1020 30.12 849 25.07 6.8 44.3 40 -5.9 21.3
17:15 1020 30.12 849 25.07 6.9 44.4 40 -5.8 21.6
17:20 1020 30.12 849 25.07 6.8 44.2 41 -5.6 22
17:25 1020 30.12 849 25.07 6.1 43 45 -5 22.9
17:30 1020 30.12 849 25.07 5.3 41.5 45 -5.6 21.9
17:35 1020 30.12 849 25.07 4.9 40.9 50 -4.6 23.8
17:40 1020 30.12 849 25.07 4.3 39.7 51 -5.1 22.9
17:45 1020 30.12 849 25.07 3.7 38.7 52 -5.1 22.8
17:50 1020 30.12 849 25.07 3.5 38.4 51 -5.6 21.9
17:55 1020 30.12 849 25.07 3.7 38.7 52 -5.2 22.6
18:00 1020 30.12 849 25.07 3.7 38.6 51 -5.6 22
18:05 1020 30.12 849 25.07 3.5 38.3 54 -5 23
18:10 1020 30.12 849 25.07 3.6 38.4 54 -5 23.1
18:15 1020 30.12 849 25.07 3.5 38.3 53 -5.2 22.7
18:20 1020 30.12 849 25.07 3.7 38.7 51 -5.4 22.2
18:25 1020 30.12 849 25.07 3.5 38.3 52 -5.5 22.1
18:30 1020 30.12 849 25.07 3.5 38.2 52 -5.4 22.4
18:35 1020 30.12 849 25.07 3.3 38 51 -5.9 21.3
18:40 1020 30.12 849 25.07 3.5 38.2 50 -5.9 21.4
18:45 1020 30.12 849 25.07 3.6 38.6 51 -5.6 22
18:50 1020 30.12 849 25.07 3.4 38.1 52 -5.4 22.3
18:55 1020 30.12 850 25.1 3.3 38 53 -5.4 22.4
19:00 1020 30.12 849 25.07 3.2 37.8 53 -5.5 22.1
19:05 1020 30.12 850 25.1 3.2 37.8 53 -5.5 22
19:10 1020 30.12 850 25.1 2.8 37.1 53 -5.8 21.6
19:15 1020 30.12 850 25.1 2.8 37.1 53 -6 21.3
19:20 1021 30.15 850 25.1 3 37.4 53 -5.7 21.7
19:25 1021 30.15 850 25.1 3.1 37.6 56 -4.9 23.2
19:30 1021 30.15 850 25.1 2.8 37 60 -4.1 24.6
19:35 1021 30.15 850 25.1 2.4 36.4 64 -3.7 25.4
19:40 1021 30.15 850 25.1 1.7 35.1 67 -3.7 25.4
19:45 1021 30.15 850 25.1 1.4 34.6 70 -3.5 25.7
19:50 1021 30.15 850 25.1 1.1 34 74 -2.9 26.7
19:55 1021 30.15 850 25.1 1 33.8 74 -3.1 26.4
20:00 1021 30.15 850 25.1 0.9 33.6 74 -3.2 26.3
20:05 1021 30.15 850 25.1 0.9 33.7 75 -3.1 26.4
20:10 1021 30.15 850 25.1 1 33.8 75 -3 26.6
20:15 1021 30.15 851 25.13 0.8 33.4 75 -3.1 26.5
20:20 1021 30.15 851 25.13 0.7 33.3 76 -3.1 26.4
20:25 1021 30.15 851 25.13 0.8 33.5 75 -3.2 26.3
20:30 1021 30.15 851 25.13 0.9 33.6 75 -3.1 26.3
20:35 1021 30.15 851 25.13 0.7 33.2 75 -3.2 26.2
20:40 1022 30.18 851 25.13 0.6 33.1 76 -3.2 26.3
20:45 1022 30.18 851 25.13 0.6 33 76 -3.1 26.4
20:50 1022 30.18 851 25.13 0.3 32.6 78 -3.1 26.3
20:55 1022 30.18 851 25.13 0.1 32.2 77 -3.4 25.9
21:00 1022 30.18 851 25.13 0.1 32.2 76 -3.6 25.6
21:05 1022 30.18 851 25.13 -0 32 73 -4.3 24.2
21:10 1022 30.18 851 25.13 0.2 32.4 71 -4.3 24.2
21:15 1022 30.18 851 25.13 0.1 32.2 75 -3.8 25.2
21:20 1022 30.18 851 25.13 -0.1 31.8 76 -3.9 25
21:25 1022 30.18 851 25.13 -0.2 31.7 77 -3.7 25.3
21:30 1022 30.18 851 25.13 -0.2 31.6 80 -3.3 26.1
21:35 1022 30.18 851 25.13 -0.3 31.5 80 -3.3 26
21:40 1022 30.18 851 25.13 -0.3 31.5 78 -3.7 25.3
21:45 1022 30.18 851 25.13 0.2 32.3 76 -3.5 25.7
21:50 1022 30.18 851 25.13 0.4 32.8 71 -4.2 24.5
21:55 1022 30.18 852 25.16 0.7 33.3 72 -3.8 25.1
22:00 1022 30.18 852 25.16 0.6 33.1 74 -3.5 25.7
22:05 1022 30.18 852 25.16 0.5 32.9 74 -3.7 25.4
22:10 1022 30.18 852 25.16 0.4 32.6 73 -3.9 25
22:15 1022 30.18 852 25.16 0.3 32.5 73 -4.1 24.6
22:20 1022 30.18 852 25.16 0.3 32.5 71 -4.3 24.2
22:25 1023 30.21 852 25.16 0.4 32.8 71 -4.2 24.5
22:30 1023 30.21 852 25.16 0.7 33.2 72 -3.8 25.1
22:35 1023 30.21 852 25.16 0.7 33.2 72 -3.8 25.1
22:40 1023 30.21 852 25.16 0.7 33.3 73 -3.6 25.6
22:45 1023 30.21 852 25.16 0.5 32.8 74 -3.7 25.4
22:50 1023 30.21 852 25.16 0.3 32.6 74 -3.8 25.2
22:55 1023 30.21 852 25.16 -0.1 31.9 76 -3.9 25
23:00 1023 30.21 852 25.16 -0.3 31.5 77 -3.7 25.3
23:05 1023 30.21 852 25.16 -0.5 31.1 77 -4.1 24.7
23:10 1023 30.21 852 25.16 -0.5 31.1 75 -4.4 24
23:15 1023 30.21 852 25.16 -0.6 31 75 -4.5 23.9
23:20 1023 30.21 852 25.16 -0.7 30.7 77 -4.2 24.4
23:25 1023 30.21 852 25.16 -0.9 30.4 76 -4.6 23.7
23:30 1023 30.21 852 25.16 -0.9 30.3 77 -4.4 24.1
23:35 1023 30.21 852 25.16 -1 30.3 78 -4.3 24.2
23:40 1023 30.21 852 25.16 -0.9 30.5 77 -4.3 24.2
23:45 1023 30.21 852 25.16 -0.6 31 76 -4.2 24.4
23:50 1023 30.21 852 25.16 -0.5 31 76 -4.3 24.3
23:55 1023 30.21 852 25.16 -0.4 31.3 76 -4.1 24.6
24:00 1023 30.21 852 25.16 -0.4 31.2 76 -4.1 24.6